Woodland, Michigan
Current Conditions -  °F | °C
As of 6:13 PM on Friday 31 Oct 2014 (Local Time) from KY70 Reporting Station
Overcast Overcast  
Wind Chill: 25°   Ceiling: 2700
Heat Index: 36°   Visibility: 10mi
Dew Point: 28°   Wind: 21mph
Humidity: 74%   Direction: 360°N
Pressure: 30.14"   Gusts: 29mph
Location:  42.73°N, 85.13°W
Report Text: KY70 312213Z AUTO 36018G25KT 10SM BKN027 OVC033 02/M02 A3014 RMK AO2 T00201022
Loading
Personal Weather Stations






























Interactive Weather Map
Tropical Storm Tracking
New forecast layout! Learn more

10-Day Weather Forecast

Advertisements
Track Severe Weather on mobile